Time;durP1;ratioP1;P1;durP2;ratioP2;P2;SDS_P1;SDS_P2;PMS_P1;PMS_P2;Temp;Humidity;BMP_temperature;BMP_pressure;BME280_temperature;BME280_humidity;BME280_pressure;Samples;Min_cycle;Max_cycle;Signal;HPM_P1;HPM_P2
2021/12/19 00:00:21;;;;;;;38.97;20.15;;;;;;;-2.96;68.90;94063.63;2071266;69;20141;-68
2021/12/19 00:03:02;;;;;;;42.30;20.27;;;;;;;-3.08;68.87;94071.78;2070929;69;20144;-67
2021/12/19 00:10:57;;;;;;;42.65;19.83;;;;;;;-3.16;70.13;94059.72;2070950;69;20159;-67
2021/12/19 00:13:25;;;;;;;35.40;17.85;;;;;;;-3.07;70.11;94056.78;2071120;69;20218;-67
2021/12/19 00:15:52;;;;;;;35.03;18.23;;;;;;;-3.08;69.50;94044.22;2071515;69;20140;-66
2021/12/19 00:18:18;;;;;;;39.00;18.70;;;;;;;-3.31;70.00;94039.81;2071414;69;20214;-67
2021/12/19 00:20:44;;;;;;;37.15;18.33;;;;;;;-3.16;68.77;94036.91;2070589;69;20168;-67
2021/12/19 00:23:11;;;;;;;35.38;17.38;;;;;;;-3.21;68.58;94032.09;2070997;69;20160;-67
2021/12/19 00:25:36;;;;;;;33.03;15.65;;;;;;;-3.14;68.75;94031.69;2071630;69;20168;-67
2021/12/19 00:28:02;;;;;;;36.42;16.80;;;;;;;-3.35;70.53;94037.25;2070947;69;20700;-66
2021/12/19 00:30:28;;;;;;;35.03;17.02;;;;;;;-3.24;69.17;94036.63;2071224;69;20219;-74
2021/12/19 00:32:54;;;;;;;34.33;16.58;;;;;;;-3.28;69.43;94030.56;2071313;69;20231;-70
2021/12/19 00:35:19;;;;;;;34.75;17.63;;;;;;;-3.17;68.64;94036.16;2071130;69;20137;-68
2021/12/19 00:37:45;;;;;;;31.98;16.25;;;;;;;-3.35;69.67;94036.50;2071034;69;20594;-70
2021/12/19 00:40:11;;;;;;;32.58;15.95;;;;;;;-3.22;69.83;94028.59;2070683;69;20148;-70
2021/12/19 00:42:38;;;;;;;30.17;15.77;;;;;;;-3.18;69.62;94025.63;2070550;69;20612;-70
2021/12/19 00:45:16;;;;;;;31.67;16.13;;;;;;;-3.24;69.39;94031.09;2070666;69;20277;-67
2021/12/19 00:47:45;;;;;;;36.78;15.02;;;;;;;-3.19;68.41;94024.88;2071093;69;20672;-67
2021/12/19 00:50:12;;;;;;;30.90;15.02;;;;;;;-3.15;68.74;94022.66;2071472;69;20168;-68
2021/12/19 00:52:38;;;;;;;30.15;14.40;;;;;;;-3.05;68.61;94019.72;2071384;69;20140;-67
2021/12/19 00:55:05;;;;;;;30.13;15.02;;;;;;;-3.11;69.16;94019.69;2071662;69;20583;-66
2021/12/19 00:57:31;;;;;;;30.20;14.88;;;;;;;-3.11;68.70;94019.69;2071376;69;20173;-67
2021/12/19 00:59:57;;;;;;;30.25;14.55;;;;;;;-3.04;68.40;94012.97;2068278;69;20594;-66
2021/12/19 01:02:22;;;;;;;31.27;15.05;;;;;;;-3.07;68.61;94023.72;2071377;69;20232;-67
2021/12/19 01:04:48;;;;;;;24.10;13.50;;;;;;;-3.03;69.03;94020.72;2070988;69;20186;-67
2021/12/19 01:07:14;;;;;;;26.42;13.63;;;;;;;-3.08;68.79;94018.69;2071157;69;20171;-67
2021/12/19 01:09:39;;;;;;;23.73;12.43;;;;;;;-3.05;68.91;94020.47;2071583;69;20183;-73
2021/12/19 01:12:09;;;;;;;25.08;12.57;;;;;;;-3.05;68.88;94025.97;2071779;69;20202;-69
2021/12/19 01:14:36;;;;;;;29.95;13.82;;;;;;;-3.21;69.01;94023.84;2071487;69;20247;-67
2021/12/19 01:17:01;;;;;;;27.42;13.20;;;;;;;-3.26;68.56;94028.06;2069697;69;20220;-66
2021/12/19 01:19:27;;;;;;;30.67;14.23;;;;;;;-3.14;68.93;94021.41;2068830;69;20353;-69
2021/12/19 01:21:53;;;;;;;28.45;14.45;;;;;;;-3.36;69.45;94021.22;2067683;69;20523;-73
2021/12/19 01:24:18;;;;;;;28.20;14.45;;;;;;;-3.36;68.58;94022.00;2067647;69;20896;-68
2021/12/19 01:26:44;;;;;;;27.80;14.02;;;;;;;-3.31;68.30;94026.03;2067679;69;20266;-72
2021/12/19 01:29:10;;;;;;;28.40;13.85;;;;;;;-3.32;67.77;94021.78;2068400;69;20144;-68
2021/12/19 01:31:36;;;;;;;27.23;13.65;;;;;;;-3.11;67.65;94020.44;2067892;69;20267;-69
2021/12/19 01:34:02;;;;;;;24.20;12.85;;;;;;;-3.09;67.74;94020.69;2068870;69;20145;-69
2021/12/19 01:36:27;;;;;;;23.58;12.25;;;;;;;-3.05;68.78;94023.22;2069308;69;20153;-74
2021/12/19 01:38:53;;;;;;;21.45;11.52;;;;;;;-2.99;67.86;94026.00;2068153;69;20218;-67
2021/12/19 01:41:19;;;;;;;20.48;11.65;;;;;;;-3.14;67.99;94026.91;2068039;69;20141;-70
2021/12/19 01:43:44;;;;;;;23.70;11.93;;;;;;;-3.19;68.76;94010.34;2065347;69;20165;-70
2021/12/19 01:46:11;;;;;;;22.33;11.57;;;;;;;-3.12;69.40;94020.91;2068750;69;20181;-72
2021/12/19 01:48:36;;;;;;;22.25;11.73;;;;;;;-3.02;68.84;94029.75;2068735;69;20153;-70
2021/12/19 01:51:03;;;;;;;19.00;10.90;;;;;;;-3.10;68.05;94026.69;2065298;69;20610;-76
2021/12/19 01:53:28;;;;;;;22.10;10.60;;;;;;;-3.08;67.93;94026.94;2068191;69;20237;-68
2021/12/19 01:55:56;;;;;;;21.15;11.00;;;;;;;-3.18;69.61;94034.66;2068692;69;20172;-74
2021/12/19 01:58:21;;;;;;;24.15;11.35;;;;;;;-3.34;70.08;94035.28;2068518;69;20140;-74
2021/12/19 02:00:54;;;;;;;22.90;12.73;;;;;;;-3.26;68.97;94032.81;2068546;69;20232;-71
2021/12/19 02:03:19;;;;;;;20.65;11.52;;;;;;;-3.12;68.89;94029.94;2068686;69;20149;-74
2021/12/19 02:05:46;;;;;;;21.77;11.50;;;;;;;-3.24;68.47;94027.59;2068490;69;20612;-73
2021/12/19 02:08:12;;;;;;;23.13;11.88;;;;;;;-3.23;68.41;94023.59;2065315;69;20144;-68
2021/12/19 02:10:40;;;;;;;24.30;12.32;;;;;;;-3.22;68.71;94031.34;2068814;69;20133;-68
2021/12/19 02:13:09;;;;;;;22.92;11.95;;;;;;;-3.25;68.33;94028.81;2068732;69;20145;-67
2021/12/19 02:15:36;;;;;;;22.80;11.60;;;;;;;-3.27;68.34;94034.06;2068688;69;20345;-71
2021/12/19 02:18:22;;;;;;;22.77;11.23;;;;;;;-3.35;68.49;94033.75;2068695;69;20243;-68
2021/12/19 02:20:54;;;;;;;25.00;11.95;;;;;;;-3.44;68.65;94031.16;2068497;69;20172;-71
2021/12/19 02:23:22;;;;;;;23.30;12.07;;;;;;;-3.46;68.87;94023.41;2068683;69;20148;-72
2021/12/19 02:25:48;;;;;;;21.83;11.32;;;;;;;-3.50;68.99;94013.84;2068599;69;20226;-71
2021/12/19 02:28:14;;;;;;;18.33;10.18;;;;;;;-3.32;68.89;94003.25;2068687;69;20152;-69
2021/12/19 02:30:40;;;;;;;18.98;10.25;;;;;;;-3.24;68.11;94006.31;2068583;69;20137;-72
2021/12/19 02:33:10;;;;;;;17.52;9.23;;;;;;;-3.22;69.85;94011.31;2065310;69;20148;-74
2021/12/19 02:35:36;;;;;;;20.08;9.90;;;;;;;-3.26;69.49;94006.03;2065242;69;20232;-74
2021/12/19 02:48:27;;;;;;;21.50;10.35;;;;;;;-3.55;69.23;93996.06;2068731;69;20205;-72
2021/12/19 02:50:54;;;;;;;22.35;10.85;;;;;;;-3.57;69.29;93990.28;2068550;69;20187;-74
2021/12/19 02:53:35;;;;;;;19.98;9.95;;;;;;;-3.52;69.53;93983.31;2068601;69;20201;-74
2021/12/19 02:56:04;;;;;;;19.83;9.57;;;;;;;-3.35;68.72;93984.19;2068647;69;20176;-77
2021/12/19 02:58:31;;;;;;;19.80;9.77;;;;;;;-3.26;69.26;93977.75;2068768;69;20505;-68
2021/12/19 03:00:59;;;;;;;17.17;7.82;;;;;;;-3.07;69.16;93976.88;2068581;69;20244;-67
2021/12/19 03:03:25;;;;;;;14.07;6.25;;;;;;;-2.95;69.54;93976.94;2068591;69;20180;-67
2021/12/19 03:05:51;;;;;;;13.48;6.53;;;;;;;-3.03;70.08;93962.84;2067784;69;20589;-67
2021/12/19 03:08:17;;;;;;;9.35;5.50;;;;;;;-2.96;71.14;93967.16;2068550;69;20137;-68
2021/12/19 03:18:27;;;;;;;17.27;9.00;;;;;;;-3.24;70.39;93955.97;2068498;69;20145;-75
2021/12/19 03:20:53;;;;;;;19.45;10.18;;;;;;;-3.17;69.25;93952.75;2068506;69;20187;-72
2021/12/19 03:23:18;;;;;;;16.70;9.25;;;;;;;-3.16;69.52;93951.50;2068849;69;20244;-71
2021/12/19 03:25:44;;;;;;;17.92;9.05;;;;;;;-3.40;69.86;93955.34;2069944;69;20217;-73
2021/12/19 03:28:12;;;;;;;17.63;8.82;;;;;;;-3.36;70.93;93955.88;2068521;69;20521;-72
2021/12/19 03:30:39;;;;;;;17.10;8.68;;;;;;;-3.25;70.22;93948.94;2064997;69;20691;-74
2021/12/19 03:33:05;;;;;;;17.30;8.90;;;;;;;-3.21;70.15;93952.97;2068518;69;20152;-74
2021/12/19 03:35:31;;;;;;;15.43;8.20;;;;;;;-3.35;70.81;93948.38;2068515;69;20592;-69
2021/12/19 03:37:59;;;;;;;12.93;6.82;;;;;;;-3.13;70.00;93945.03;2068419;69;20245;-67
2021/12/19 03:40:35;;;;;;;15.13;7.47;;;;;;;-3.11;69.95;93942.53;2065152;69;20163;-67
2021/12/19 03:43:06;;;;;;;10.80;5.55;;;;;;;-3.02;70.18;93939.59;2068499;69;20177;-67
2021/12/19 03:45:32;;;;;;;11.43;6.30;;;;;;;-2.97;70.05;93933.34;2068547;69;20148;-67
2021/12/19 03:47:58;;;;;;;10.13;5.93;;;;;;;-2.94;69.45;93923.31;2068468;69;20608;-67
2021/12/19 03:50:24;;;;;;;12.57;6.22;;;;;;;-3.19;69.86;93919.44;2068440;69;20236;-68
2021/12/19 03:52:51;;;;;;;16.27;6.93;;;;;;;-3.37;71.28;93929.59;2068346;69;20255;-75
2021/12/19 03:55:18;;;;;;;10.68;6.20;;;;;;;-3.23;70.33;93927.94;2068404;69;20615;-72
2021/12/19 03:57:44;;;;;;;14.25;7.05;;;;;;;-3.23;69.48;93935.44;2068455;69;20236;-71
2021/12/19 04:00:14;;;;;;;11.75;6.47;;;;;;;-3.18;69.90;93920.94;2068432;69;20202;-75
2021/12/19 04:02:39;;;;;;;11.10;6.28;;;;;;;-3.10;69.62;93928.28;2065201;69;20147;-73
2021/12/19 04:05:06;;;;;;;10.05;5.88;;;;;;;-3.17;70.10;93919.69;2068329;69;20140;-76
2021/12/19 04:07:31;;;;;;;11.32;5.97;;;;;;;-3.25;70.25;93924.16;2068295;69;20512;-76
2021/12/19 04:09:57;;;;;;;10.52;5.88;;;;;;;-3.15;69.79;93923.47;2068423;69;20144;-68
2021/12/19 04:12:26;;;;;;;11.07;5.88;;;;;;;-3.14;69.89;93907.72;2068370;69;20256;-68
2021/12/19 04:14:51;;;;;;;10.57;5.43;;;;;;;-3.10;69.65;93916.50;2068376;69;20146;-71
2021/12/19 04:17:17;;;;;;;10.77;5.60;;;;;;;-3.32;69.98;93915.13;2068327;69;20156;-67
2021/12/19 04:19:43;;;;;;;13.80;6.38;;;;;;;-3.23;70.03;93910.66;2068442;69;20152;-68
2021/12/19 04:22:09;;;;;;;10.85;5.65;;;;;;;-3.32;70.54;93903.34;2064947;69;20249;-67
2021/12/19 04:24:35;;;;;;;10.60;5.80;;;;;;;-3.24;69.95;93898.88;2065071;69;20167;-71
2021/12/19 04:27:00;;;;;;;10.07;5.60;;;;;;;-3.21;69.79;93903.41;2068603;69;20152;-76
2021/12/19 04:29:26;;;;;;;10.80;5.65;;;;;;;-3.56;71.36;93909.19;2068489;69;20144;-76
2021/12/19 04:31:53;;;;;;;11.45;6.03;;;;;;;-3.37;70.16;93907.56;2068329;69;20235;-72
2021/12/19 04:34:19;;;;;;;10.45;5.93;;;;;;;-3.27;70.06;93905.38;2068464;69;20163;-72
2021/12/19 04:36:49;;;;;;;9.82;5.60;;;;;;;-3.40;70.35;93900.28;2068242;69;20168;-74
2021/12/19 04:51:03;;;;;;;8.90;4.65;;;;;;;-2.92;69.85;93887.78;2068412;69;20136;-70
2021/12/19 04:55:38;;;;;;;8.38;4.80;;;;;;;-3.05;69.94;93890.97;2068301;69;20202;-74
2021/12/19 04:58:46;;;;;;;10.45;4.88;;;;;;;-3.09;70.51;93888.44;2068284;69;20224;-76
2021/12/19 05:01:28;;;;;;;10.70;4.88;;;;;;;-3.15;69.56;93893.19;2067876;69;20619;-73
2021/12/19 05:15:24;;;;;;;13.50;5.88;;;;;;;-3.30;71.34;93889.06;2068484;69;20588;-72
2021/12/19 05:17:50;;;;;;;6.75;4.28;;;;;;;-3.10;71.96;93894.47;2064986;69;20218;-69
2021/12/19 05:20:21;;;;;;;8.48;3.80;;;;;;;-3.00;71.07;93898.50;2068291;69;20194;-68
2021/12/19 05:22:49;;;;;;;8.45;4.57;;;;;;;-3.07;72.66;93902.50;2064838;69;20244;-68
2021/12/19 05:25:19;;;;;;;8.95;4.43;;;;;;;-2.93;71.75;93905.53;2068351;69;20155;-67
2021/12/19 05:27:55;;;;;;;16.70;8.18;;;;;;;-3.32;71.37;93908.84;2068309;69;20229;-73
2021/12/19 05:30:23;;;;;;;15.68;8.90;;;;;;;-3.27;71.37;93907.38;2068372;69;20137;-75
2021/12/19 05:32:50;;;;;;;14.40;8.38;;;;;;;-3.27;70.90;93907.38;2068181;69;20157;-74
2021/12/19 05:35:25;;;;;;;12.65;6.60;;;;;;;-3.13;70.89;93907.22;2064905;69;20235;-76
2021/12/19 05:46:05;;;;;;;15.68;6.82;;;;;;;-3.30;70.78;93895.34;2068389;69;20152;-74
2021/12/19 05:48:31;;;;;;;14.63;5.70;;;;;;;-3.18;70.91;93893.41;2064848;69;20147;-73
2021/12/19 05:50:56;;;;;;;15.50;8.23;;;;;;;-2.99;70.64;93885.47;2068042;69;20185;-75
2021/12/19 05:53:22;;;;;;;14.00;7.72;;;;;;;-2.91;69.69;93889.28;2068146;69;20554;-72
2021/12/19 05:55:48;;;;;;;11.27;5.85;;;;;;;-2.99;70.47;93875.22;2068574;69;20183;-69
2021/12/19 05:58:13;;;;;;;14.63;7.25;;;;;;;-3.28;71.46;93887.34;2068689;69;20156;-70
2021/12/19 06:00:39;;;;;;;15.00;7.70;;;;;;;-3.08;70.46;93881.69;2068672;69;20205;-69
2021/12/19 06:03:05;;;;;;;12.35;7.05;;;;;;;-3.15;70.30;93889.69;2068712;69;20772;-69
2021/12/19 06:05:31;;;;;;;13.85;7.35;;;;;;;-3.19;69.87;93880.88;2068651;69;20225;-71
2021/12/19 06:07:57;;;;;;;13.70;7.40;;;;;;;-3.18;69.86;93876.88;2068509;69;20152;-70
2021/12/19 06:10:22;;;;;;;13.88;7.25;;;;;;;-3.30;70.67;93878.81;2068757;69;20147;-69
2021/12/19 06:12:49;;;;;;;14.30;7.47;;;;;;;-3.16;69.50;93871.63;2068671;69;20520;-68
2021/12/19 06:15:15;;;;;;;15.50;8.43;;;;;;;-3.57;70.49;93874.66;2068672;69;20163;-68
2021/12/19 06:17:44;;;;;;;13.75;7.95;;;;;;;-3.47;69.78;93873.22;2068619;69;20168;-71
2021/12/19 06:20:10;;;;;;;16.23;8.45;;;;;;;-3.46;69.70;93868.47;2068600;69;20152;-74
2021/12/19 06:22:36;;;;;;;16.10;7.78;;;;;;;-3.41;70.20;93876.00;2068471;69;20191;-76
2021/12/19 06:25:03;;;;;;;16.45;8.65;;;;;;;-3.47;70.39;93875.22;2065559;69;20145;-68
2021/12/19 06:27:29;;;;;;;14.57;7.75;;;;;;;-3.34;69.74;93872.81;2070141;69;20152;-72
2021/12/19 06:29:55;;;;;;;14.60;7.50;;;;;;;-3.27;69.25;93877.09;2068649;69;20339;-70
2021/12/19 06:32:20;;;;;;;16.77;8.32;;;;;;;-3.36;70.45;93875.28;2068420;69;20151;-76
2021/12/19 06:34:46;;;;;;;15.43;10.20;;;;;;;-3.56;70.90;93884.44;2068440;69;20149;-70
2021/12/19 06:37:12;;;;;;;20.08;10.05;;;;;;;-3.46;70.49;93882.97;2068469;69;20149;-68
2021/12/19 06:39:38;;;;;;;15.48;9.88;;;;;;;-3.32;69.81;93887.56;2068601;69;20210;-71
2021/12/19 06:42:07;;;;;;;21.08;11.88;;;;;;;-3.36;69.99;93889.81;2068614;69;20303;-69
2021/12/19 06:44:34;;;;;;;17.63;11.55;;;;;;;-3.39;69.73;93887.28;2068547;69;20179;-70
2021/12/19 06:47:01;;;;;;;20.05;12.25;;;;;;;-3.36;70.66;93878.78;2068549;69;20601;-70
2021/12/19 06:49:27;;;;;;;19.25;11.48;;;;;;;-3.42;70.42;93886.25;2068577;69;20136;-75
2021/12/19 06:51:52;;;;;;;23.17;11.85;;;;;;;-3.44;70.17;93888.00;2068710;69;20152;-77
2021/12/19 06:54:21;;;;;;;26.10;13.40;;;;;;;-3.38;70.35;93884.03;2070097;69;20229;-73
2021/12/19 06:56:46;;;;;;;21.25;12.95;;;;;;;-3.30;69.99;93880.81;2068534;69;20156;-75
2021/12/19 06:59:12;;;;;;;23.08;13.20;;;;;;;-3.37;70.97;93877.28;2068571;69;20145;-74
2021/12/19 07:01:39;;;;;;;26.10;13.77;;;;;;;-3.30;69.69;93883.56;2068667;69;20175;-71
2021/12/19 07:04:04;;;;;;;34.10;17.10;;;;;;;-3.37;69.93;93873.78;2068516;69;20525;-70
2021/12/19 07:06:30;;;;;;;31.33;15.00;;;;;;;-3.20;70.18;93879.38;2068283;69;20152;-68
2021/12/19 07:08:55;;;;;;;29.20;15.05;;;;;;;-3.21;70.21;93881.38;2068629;69;20164;-71
2021/12/19 07:11:21;;;;;;;29.98;15.60;;;;;;;-3.10;71.00;93883.44;2068643;69;20141;-70
2021/12/19 07:13:47;;;;;;;33.58;16.88;;;;;;;-3.22;70.80;93884.63;2068604;69;20149;-68
2021/12/19 07:16:13;;;;;;;36.83;18.63;;;;;;;-3.25;70.43;93885.59;2068562;69;20260;-69
2021/12/19 07:18:38;;;;;;;31.23;16.88;;;;;;;-3.16;70.38;93891.69;2068494;69;20204;-69
2021/12/19 07:21:06;;;;;;;34.63;17.13;;;;;;;-3.21;70.28;93886.88;2068554;69;20149;-70
2021/12/19 07:23:32;;;;;;;33.55;17.92;;;;;;;-3.30;69.99;93889.81;2068741;69;20152;-76
2021/12/19 07:25:59;;;;;;;37.22;20.00;;;;;;;-3.24;70.36;93896.13;2068511;69;20143;-76
2021/12/19 07:28:25;;;;;;;37.35;19.25;;;;;;;-3.27;70.57;93902.63;2068539;69;20221;-75
2021/12/19 07:30:50;;;;;;;31.98;18.52;;;;;;;-3.37;70.46;93909.56;2068442;69;20157;-73
2021/12/19 07:33:18;;;;;;;35.50;19.60;;;;;;;-3.27;70.27;93910.88;2068424;69;20137;-70
2021/12/19 07:35:47;;;;;;;37.22;21.88;;;;;;;-3.29;70.27;93910.63;2065023;69;20151;-70
2021/12/19 07:38:21;;;;;;;47.33;24.63;;;;;;;-3.37;71.19;93921.34;2068459;69;20590;-69
2021/12/19 07:40:50;;;;;;;43.75;23.83;;;;;;;-3.32;70.69;93917.88;2068465;69;20602;-68
2021/12/19 07:43:16;;;;;;;46.38;23.50;;;;;;;-3.33;70.35;93913.63;2068594;69;20164;-68
2021/12/19 07:45:43;;;;;;;48.20;25.35;;;;;;;-3.27;70.17;93910.88;2068429;69;20160;-69
2021/12/19 07:48:08;;;;;;;56.47;29.52;;;;;;;-3.23;70.54;93911.41;2068456;69;20607;-68
2021/12/19 07:50:34;;;;;;;44.28;24.95;;;;;;;-3.27;70.35;93902.63;2068593;69;20168;-69
2021/12/19 07:53:01;;;;;;;45.75;25.20;;;;;;;-3.13;69.86;93904.44;2068283;69;20599;-67
2021/12/19 07:55:27;;;;;;;46.13;24.85;;;;;;;-3.14;70.47;93902.94;2070125;69;20619;-68
2021/12/19 07:57:53;;;;;;;47.30;24.50;;;;;;;-3.25;70.68;93900.16;2068438;69;20144;-68
2021/12/19 08:00:20;;;;;;;43.20;23.50;;;;;;;-3.78;71.68;93915.28;2068444;69;20210;-70
2021/12/19 08:02:47;;;;;;;45.30;23.58;;;;;;;-3.41;70.50;93920.06;2071920;69;20156;-72
2021/12/19 08:05:14;;;;;;;40.63;20.85;;;;;;;-3.38;70.45;93908.81;2071717;69;20588;-71
2021/12/19 08:07:40;;;;;;;36.42;20.10;;;;;;;-3.34;70.58;93903.84;2071670;69;20151;-70
2021/12/19 08:12:34;;;;;;;37.83;22.40;;;;;;;-3.36;70.96;93900.06;2071892;69;20558;-72
2021/12/19 08:14:59;;;;;;;49.47;24.58;;;;;;;-3.19;70.55;93894.66;2071785;69;20175;-76
2021/12/19 08:17:26;;;;;;;50.42;25.60;;;;;;;-3.26;70.79;93890.34;2070001;69;20512;-72
2021/12/19 08:19:52;;;;;;;45.33;24.55;;;;;;;-3.09;70.12;93893.97;2068661;69;20151;-75
2021/12/19 08:22:19;;;;;;;41.75;24.00;;;;;;;-3.09;70.03;93896.72;2068299;69;20167;-77
2021/12/19 08:24:47;;;;;;;86.10;32.97;;;;;;;-3.14;70.97;93897.44;2068342;69;20390;-77
2021/12/19 08:27:13;;;;;;;73.28;31.83;;;;;;;-3.10;71.67;93891.69;2068378;69;20140;-76
2021/12/19 08:29:39;;;;;;;74.72;33.60;;;;;;;-2.98;70.62;93887.72;2068645;69;20213;-68
2021/12/19 08:32:04;;;;;;;73.43;33.00;;;;;;;-2.89;71.11;93895.03;2069823;69;20160;-71
2021/12/19 08:34:30;;;;;;;64.40;31.48;;;;;;;-2.84;70.35;93900.59;2068455;69;20141;-72
2021/12/19 08:36:56;;;;;;;51.40;28.35;;;;;;;-2.88;70.50;93893.81;2068268;69;20149;-74
2021/12/19 08:39:22;;;;;;;54.22;28.00;;;;;;;-3.03;70.77;93899.50;2068373;69;20249;-76
2021/12/19 08:41:48;;;;;;;53.58;28.52;;;;;;;-2.94;70.69;93893.03;2068713;69;20179;-78
2021/12/19 08:44:14;;;;;;;53.58;28.50;;;;;;;-2.87;71.14;93895.31;2069728;69;20246;-75
2021/12/19 08:46:41;;;;;;;56.55;29.60;;;;;;;-2.79;70.77;93888.09;2068496;69;20187;-77
2021/12/19 08:49:08;;;;;;;75.90;36.13;;;;;;;-2.86;70.11;93883.78;2065026;69;20141;-77
2021/12/19 08:51:35;;;;;;;77.78;35.20;;;;;;;-3.05;71.10;93884.72;2068168;69;20145;-77
2021/12/19 08:54:01;;;;;;;69.85;35.60;;;;;;;-2.90;71.39;93893.53;2068308;69;20183;-77
2021/12/19 08:56:28;;;;;;;83.60;41.33;;;;;;;-2.52;70.95;93889.44;2068249;69;20160;-77
2021/12/19 08:58:53;;;;;;;88.88;44.70;;;;;;;-2.01;71.47;93886.78;2068421;69;20151;-68
2021/12/19 09:01:20;;;;;;;99.85;47.70;;;;;;;-1.68;70.96;93886.78;2068254;69;20171;-67
2021/12/19 09:03:45;;;;;;;109.97;52.92;;;;;;;-1.44;72.03;93885.50;2068285;69;20184;-68
2021/12/19 09:06:11;;;;;;;103.90;52.15;;;;;;;-1.10;71.68;93886.16;2068179;69;20144;-76
2021/12/19 09:08:37;;;;;;;109.40;52.85;;;;;;;-0.99;72.61;93872.34;2069172;69;20261;-76
2021/12/19 09:11:03;;;;;;;97.70;47.17;;;;;;;-0.82;72.91;93858.47;2071566;69;20151;-71
2021/12/19 09:13:29;;;;;;;90.95;42.17;;;;;;;-0.56;72.06;93874.69;2071611;69;20156;-76
2021/12/19 09:15:55;;;;;;;84.07;38.40;;;;;;;-0.29;71.19;93862.72;2071668;69;20225;-76
2021/12/19 09:18:21;;;;;;;78.80;36.67;;;;;;;0.00;71.40;93860.53;2071815;69;20662;-75
2021/12/19 09:20:47;;;;;;;44.00;23.35;;;;;;;-0.15;69.61;93868.41;2071566;69;20151;-75
2021/12/19 09:23:13;;;;;;;48.72;26.00;;;;;;;0.11;69.87;93865.22;2071604;69;20198;-74
2021/12/19 09:25:39;;;;;;;41.15;22.50;;;;;;;0.46;69.28;93862.44;2071543;69;20573;-77
2021/12/19 09:28:05;;;;;;;41.50;23.02;;;;;;;0.73;68.06;93863.44;2071557;69;20191;-74
2021/12/19 09:30:31;;;;;;;44.08;24.20;;;;;;;1.00;67.84;93856.09;2072160;69;20231;-69
2021/12/19 09:32:57;;;;;;;45.00;25.80;;;;;;;1.46;67.02;93857.06;2072189;69;20188;-68
2021/12/19 09:35:23;;;;;;;53.60;31.77;;;;;;;1.62;66.68;93846.31;2071549;69;20607;-68
2021/12/19 09:37:49;;;;;;;50.25;30.02;;;;;;;1.75;66.70;93836.03;2070754;69;20263;-75
2021/12/19 09:40:24;;;;;;;40.72;21.70;;;;;;;2.03;66.12;93827.28;2071991;69;20136;-74
2021/12/19 09:42:52;;;;;;;39.25;22.17;;;;;;;2.45;66.88;93824.09;2071972;69;20197;-76
2021/12/19 09:45:19;;;;;;;35.75;19.17;;;;;;;2.77;65.08;93812.94;2072281;69;20187;-75
2021/12/19 09:47:45;;;;;;;33.65;18.50;;;;;;;2.68;64.57;93807.78;2072043;69;20175;-77
2021/12/19 09:50:12;;;;;;;29.35;17.40;;;;;;;2.99;64.76;93801.38;2072067;69;20523;-78
2021/12/19 09:52:38;;;;;;;41.05;24.17;;;;;;;3.18;63.17;93800.53;2072073;69;20688;-80
2021/12/19 09:55:05;;;;;;;43.33;25.33;;;;;;;3.39;63.35;93790.25;2072014;69;20187;-77
2021/12/19 09:57:30;;;;;;;43.70;25.25;;;;;;;3.51;62.25;93782.38;2072188;69;20227;-77
2021/12/19 09:59:56;;;;;;;40.72;23.25;;;;;;;3.76;62.27;93764.13;2068730;69;20286;-74
2021/12/19 10:02:22;;;;;;;38.65;20.95;;;;;;;4.29;60.50;93771.47;2072139;69;20147;-68
2021/12/19 10:04:48;;;;;;;33.97;19.88;;;;;;;4.37;60.68;93769.50;2071002;69;20251;-69
2021/12/19 10:07:18;;;;;;;29.38;16.55;;;;;;;4.70;59.90;93762.34;2071111;69;20579;-69
2021/12/19 10:10:00;;;;;;;37.13;20.35;;;;;;;4.71;59.95;93755.44;2072175;69;20163;-68
2021/12/19 10:14:57;;;;;;;73.90;40.75;;;;;;;5.06;57.33;93747.69;2071977;69;20145;-68
2021/12/19 10:17:23;;;;;;;16.70;10.10;;;;;;;4.15;57.39;93747.75;2071972;69;20132;-71
2021/12/19 10:19:54;;;;;;;15.52;9.68;;;;;;;5.15;57.21;93747.16;2071989;69;20177;-74
2021/12/19 10:22:28;;;;;;;18.63;11.45;;;;;;;5.39;54.63;93750.81;2071982;69;20148;-74
2021/12/19 10:24:57;;;;;;;24.42;14.45;;;;;;;6.17;55.18;93744.91;2071985;69;20144;-73
2021/12/19 10:27:42;;;;;;;27.38;15.30;;;;;;;6.61;53.79;93742.72;2072110;69;20590;-71
2021/12/19 10:30:17;;;;;;;26.42;17.00;;;;;;;6.76;52.71;93737.09;2071986;69;20239;-73
2021/12/19 10:33:04;;;;;;;25.55;16.48;;;;;;;7.24;52.48;93739.25;2071605;69;20647;-70
2021/12/19 10:35:58;;;;;;;24.17;15.60;;;;;;;7.53;51.20;93729.25;2071679;69;20156;-71
2021/12/19 10:38:47;;;;;;;23.88;15.32;;;;;;;7.49;49.11;93730.97;2071202;69;20140;-71
2021/12/19 10:41:14;;;;;;;27.40;17.10;;;;;;;7.84;50.08;93731.94;2071641;69;20298;-70
2021/12/19 10:44:02;;;;;;;36.72;21.20;;;;;;;8.05;48.24;93731.63;2072015;69;20144;-73
2021/12/19 10:46:31;;;;;;;29.48;18.98;;;;;;;8.85;46.65;93728.63;2068654;69;20227;-70
2021/12/19 10:48:58;;;;;;;23.05;15.15;;;;;;;9.20;45.97;93725.09;2071901;69;20144;-75
2021/12/19 10:51:25;;;;;;;22.77;15.13;;;;;;;10.17;45.91;93726.53;2068582;69;20144;-69
2021/12/19 10:53:53;;;;;;;29.55;21.30;;;;;;;9.92;44.10;93723.88;2071937;69;20622;-70
2021/12/19 10:56:23;;;;;;;27.65;17.85;;;;;;;10.52;43.33;93723.63;2071870;69;20172;-71
2021/12/19 10:58:57;;;;;;;9.90;6.85;;;;;;;11.22;42.34;93715.50;2071906;69;20163;-75
2021/12/19 11:01:29;;;;;;;18.25;11.23;;;;;;;12.79;41.46;93719.03;2069206;69;20144;-69
2021/12/19 11:04:10;;;;;;;14.68;11.35;;;;;;;12.93;37.75;93722.81;2070828;69;20136;-71
2021/12/19 11:06:44;;;;;;;13.80;9.85;;;;;;;10.50;38.92;93717.84;2070857;69;20164;-70
2021/12/19 11:09:18;;;;;;;11.82;7.93;;;;;;;9.83;41.37;93705.63;2071814;69;20674;-71
2021/12/19 11:12:07;;;;;;;14.98;10.75;;;;;;;9.70;41.86;93699.59;2071903;69;20144;-74
2021/12/19 11:14:40;;;;;;;18.35;12.68;;;;;;;8.30;42.96;93695.94;2071800;69;20217;-71
2021/12/19 11:17:10;;;;;;;;;;;;;;;8.53;44.55;93687.34;2071919;69;20183;-70
2021/12/19 11:19:38;;;;;;;16.02;11.07;;;;;;;8.12;44.58;93694.38;2071576;69;20171;-71
2021/12/19 11:22:04;;;;;;;27.92;19.88;;;;;;;7.56;46.56;93682.53;2073448;69;20136;-75
2021/12/19 11:24:30;;;;;;;36.85;21.23;;;;;;;7.29;46.11;93685.84;2074442;69;20144;-69
2021/12/19 11:26:59;;;;;;;32.80;19.33;;;;;;;6.82;46.70;93678.13;2071495;69;20247;-70
2021/12/19 11:29:25;;;;;;;23.05;15.68;;;;;;;5.68;47.83;93670.44;2075057;69;20527;-68
2021/12/19 11:31:57;;;;;;;95.07;59.05;;;;;;;5.12;48.74;93669.34;2075178;69;20274;-68
2021/12/19 11:34:31;;;;;;;47.13;29.02;;;;;;;5.43;50.59;93662.59;2075253;69;20507;-69
2021/12/19 11:37:22;;;;;;;30.65;17.98;;;;;;;4.87;49.87;93650.28;2075020;69;20156;-68
2021/12/19 11:39:54;;;;;;;27.63;17.05;;;;;;;4.96;50.60;93652.56;2074851;69;20136;-68
2021/12/19 11:42:32;;;;;;;31.77;17.90;;;;;;;4.65;51.43;93646.06;2075132;69;20151;-68
2021/12/19 11:47:35;;;;;;;35.47;19.73;;;;;;;4.05;50.74;93645.13;2067608;69;20164;-69
2021/12/19 11:50:21;;;;;;;29.75;18.55;;;;;;;3.93;51.99;93632.03;2070886;69;20144;-67
2021/12/19 11:52:48;;;;;;;31.10;20.35;;;;;;;3.61;52.90;93627.47;2070569;69;20611;-68
2021/12/19 11:55:14;;;;;;;33.38;21.50;;;;;;;3.63;52.49;93627.69;2070084;69;20230;-69
2021/12/19 11:58:03;;;;;;;39.40;24.98;;;;;;;3.95;53.94;93618.31;2070638;69;20156;-70
2021/12/19 12:00:32;;;;;;;50.75;31.38;;;;;;;3.59;53.94;93615.41;2071055;69;20156;-69
2021/12/19 12:03:13;;;;;;;65.57;38.10;;;;;;;3.37;54.34;93603.50;2073998;69;20140;-68
2021/12/19 12:05:41;;;;;;;70.10;38.58;;;;;;;3.27;54.81;93605.28;2074845;69;20244;-68
2021/12/19 12:08:08;;;;;;;60.33;33.35;;;;;;;3.24;54.97;93592.44;2073514;69;20136;-67
2021/12/19 12:13:36;;;;;;;58.05;32.60;;;;;;;3.36;55.08;93579.75;2071566;69;20565;-68
2021/12/19 12:16:27;;;;;;;50.30;32.20;;;;;;;3.09;55.23;93579.13;2071630;69;20149;-68
2021/12/19 12:18:58;;;;;;;55.80;31.08;;;;;;;2.90;54.69;93578.56;2071513;69;20135;-68
2021/12/19 12:21:39;;;;;;;51.13;29.17;;;;;;;2.66;54.40;93571.25;2070565;69;20201;-68
2021/12/19 12:24:12;;;;;;;48.72;28.83;;;;;;;2.31;55.22;93564.88;2071457;69;20617;-68
2021/12/19 12:26:56;;;;;;;51.60;28.30;;;;;;;2.17;55.49;93560.63;2071678;69;20161;-68
2021/12/19 12:29:22;;;;;;;55.30;30.02;;;;;;;2.26;56.26;93549.06;2068131;69;20168;-70
2021/12/19 12:31:49;;;;;;;89.57;44.25;;;;;;;2.23;56.37;93553.66;2072483;69;20151;-70
2021/12/19 12:34:17;;;;;;;92.53;47.40;;;;;;;2.24;57.20;93537.72;2073600;69;20226;-72